createdAt,value
2022-12-25T00:00:20.219Z,4.40
2022-12-25T00:02:47.609Z,4.70
2022-12-25T00:05:14.617Z,4.50
2022-12-25T00:07:41.180Z,4.30
2022-12-25T00:10:09.788Z,4.90
2022-12-25T00:12:36.498Z,4.50
2022-12-25T00:15:05.805Z,4.70
2022-12-25T00:17:34.073Z,5.50
2022-12-25T00:20:00.702Z,4.60
2022-12-25T00:22:27.316Z,4.90
2022-12-25T00:24:55.313Z,4.60
2022-12-25T00:27:27.376Z,5.40
2022-12-25T00:29:54.856Z,4.40
2022-12-25T00:32:22.443Z,5.00
2022-12-25T00:34:49.751Z,5.90
2022-12-25T00:37:17.776Z,4.70
2022-12-25T00:39:44.788Z,5.30
2022-12-25T00:42:21.763Z,5.50
2022-12-25T00:47:18.744Z,5.10
2022-12-25T00:49:45.978Z,5.40
2022-12-25T00:52:14.001Z,5.10
2022-12-25T00:54:42.615Z,4.50
2022-12-25T00:57:09.819Z,4.90
2022-12-25T00:59:37.548Z,4.60
2022-12-25T01:02:23.724Z,4.80
2022-12-25T01:04:56.520Z,5.00
2022-12-25T01:07:25.578Z,5.40
2022-12-25T01:10:12.359Z,7.40
2022-12-25T01:12:41.372Z,5.30
2022-12-25T01:15:11.993Z,5.70
2022-12-25T01:17:38.608Z,6.20
2022-12-25T01:20:07.711Z,5.90
2022-12-25T01:22:34.467Z,6.30
2022-12-25T01:25:01.057Z,6.00
2022-12-25T01:27:28.652Z,5.50
2022-12-25T01:29:55.941Z,6.60
2022-12-25T01:32:22.771Z,5.70
2022-12-25T01:34:55.703Z,6.50
2022-12-25T01:37:29.031Z,6.20
2022-12-25T01:39:55.707Z,6.00
2022-12-25T01:42:26.229Z,5.90
2022-12-25T01:45:24.208Z,6.20
2022-12-25T01:47:51.716Z,6.20
2022-12-25T01:50:20.241Z,5.70
2022-12-25T01:52:48.109Z,6.20
2022-12-25T01:55:15.416Z,6.20
2022-12-25T01:57:45.912Z,6.40
2022-12-25T02:00:13.597Z,6.10
2022-12-25T02:02:42.069Z,5.50
2022-12-25T02:05:27.426Z,5.80
2022-12-25T02:07:55.003Z,6.00
2022-12-25T02:10:23.143Z,5.80
2022-12-25T02:12:50.363Z,6.00
2022-12-25T02:15:21.068Z,6.60
2022-12-25T02:18:08.017Z,7.20
2022-12-25T02:20:36.070Z,6.00
2022-12-25T02:23:21.450Z,5.70
2022-12-25T02:26:11.519Z,6.70
2022-12-25T02:28:54.880Z,5.60
2022-12-25T02:31:41.379Z,5.60
2022-12-25T02:34:21.214Z,6.50
2022-12-25T02:36:53.856Z,6.10
2022-12-25T02:40:01.118Z,5.90
2022-12-25T02:43:02.341Z,6.10
2022-12-25T02:46:02.593Z,6.20
2022-12-25T02:48:52.990Z,5.60
2022-12-25T02:51:41.590Z,5.80
2022-12-25T02:54:32.162Z,6.70
2022-12-25T02:57:22.481Z,6.10
2022-12-25T03:00:12.853Z,6.30
2022-12-25T03:03:01.698Z,5.80
2022-12-25T03:05:51.122Z,5.40
2022-12-25T03:08:24.709Z,5.80
2022-12-25T03:11:20.506Z,5.50
2022-12-25T03:13:51.488Z,5.40
2022-12-25T03:16:39.991Z,5.90
2022-12-25T03:19:28.384Z,6.50
2022-12-25T03:22:16.886Z,6.50
2022-12-25T03:25:04.689Z,6.50
2022-12-25T03:27:34.852Z,6.10
2022-12-25T03:30:23.384Z,7.00
2022-12-25T03:33:23.237Z,5.70
2022-12-25T03:36:20.055Z,6.20
2022-12-25T03:39:23.256Z,5.80
2022-12-25T03:42:15.238Z,7.20
2022-12-25T03:45:18.185Z,6.30
2022-12-25T03:48:18.558Z,7.20
2022-12-25T03:51:10.347Z,7.80
2022-12-25T03:54:07.720Z,8.00
2022-12-25T03:56:55.868Z,8.10
2022-12-25T03:59:44.083Z,8.60
2022-12-25T04:02:32.497Z,7.80
2022-12-25T04:05:19.435Z,8.30
2022-12-25T04:08:04.995Z,9.60
2022-12-25T04:10:50.200Z,8.60
2022-12-25T04:13:35.799Z,9.00
2022-12-25T04:16:21.570Z,9.50
2022-12-25T04:19:08.584Z,8.70
2022-12-25T04:21:56.881Z,9.50
2022-12-25T04:24:44.441Z,9.60
2022-12-25T04:27:32.768Z,8.30
2022-12-25T04:30:21.154Z,7.20
2022-12-25T04:33:11.860Z,7.30
2022-12-25T04:35:57.139Z,7.20
2022-12-25T04:38:24.635Z,7.80
2022-12-25T04:40:52.680Z,8.30
2022-12-25T04:43:19.331Z,8.40
2022-12-25T04:45:55.535Z,8.50
2022-12-25T04:48:23.165Z,8.60
2022-12-25T04:50:53.400Z,7.50
2022-12-25T04:53:21.229Z,6.90
2022-12-25T04:55:47.911Z,9.10
2022-12-25T04:58:15.655Z,8.50
2022-12-25T05:00:43.577Z,7.50
2022-12-25T05:03:11.684Z,7.40
2022-12-25T05:05:40.553Z,8.00
2022-12-25T05:08:08.546Z,7.90
2022-12-25T05:10:35.112Z,8.40
2022-12-25T05:13:03.498Z,7.70
2022-12-25T05:15:30.066Z,7.90
2022-12-25T05:17:58.208Z,8.40
2022-12-25T05:20:25.315Z,7.10
2022-12-25T05:22:55.081Z,8.00
2022-12-25T05:25:24.667Z,7.50
2022-12-25T05:27:54.169Z,7.90
2022-12-25T05:30:21.451Z,7.50
2022-12-25T05:32:50.652Z,7.10
2022-12-25T05:35:17.145Z,8.00
2022-12-25T05:37:43.747Z,7.80
2022-12-25T05:40:10.997Z,7.30
2022-12-25T05:42:40.553Z,8.90
2022-12-25T05:45:08.662Z,8.00
2022-12-25T05:47:36.956Z,7.60
2022-12-25T05:50:04.749Z,7.80
2022-12-25T05:52:33.149Z,7.40
2022-12-25T05:55:00.195Z,8.10
2022-12-25T05:57:32.261Z,7.80
2022-12-25T05:59:59.344Z,7.70
2022-12-25T06:02:29.090Z,7.10
2022-12-25T06:04:55.803Z,7.20
2022-12-25T06:07:24.166Z,7.90
2022-12-25T06:09:50.770Z,8.70
2022-12-25T06:12:19.982Z,9.00
2022-12-25T06:14:49.992Z,8.70
2022-12-25T06:17:16.852Z,7.70
2022-12-25T06:19:43.415Z,9.20
2022-12-25T06:22:09.935Z,8.80
2022-12-25T06:24:36.721Z,8.60
2022-12-25T06:27:04.433Z,8.20
2022-12-25T06:29:33.999Z,7.50
2022-12-25T06:32:00.993Z,8.00
2022-12-25T06:34:28.699Z,8.30
2022-12-25T06:36:56.267Z,7.80
2022-12-25T06:39:25.902Z,7.30
2022-12-25T06:41:52.478Z,7.70
2022-12-25T06:44:19.134Z,7.80
2022-12-25T06:46:45.792Z,7.50
2022-12-25T06:49:12.399Z,7.20
2022-12-25T06:51:42.152Z,7.60
2022-12-25T06:54:11.099Z,8.10
2022-12-25T06:56:38.020Z,7.00
2022-12-25T06:59:08.042Z,6.90
2022-12-25T07:01:46.619Z,7.40
2022-12-25T07:04:39.460Z,7.20
2022-12-25T07:07:09.818Z,7.90
2022-12-25T07:09:39.020Z,7.70
2022-12-25T07:12:18.255Z,7.70
2022-12-25T07:14:48.808Z,7.30
2022-12-25T07:17:20.296Z,7.10
2022-12-25T07:19:47.557Z,7.30
2022-12-25T07:22:15.106Z,6.90
2022-12-25T07:24:41.658Z,7.10
2022-12-25T07:27:08.539Z,7.10
2022-12-25T07:29:36.122Z,6.70
2022-12-25T07:32:04.387Z,7.00
2022-12-25T07:34:30.903Z,7.10
2022-12-25T07:37:00.115Z,6.20
2022-12-25T07:39:26.706Z,7.10
2022-12-25T07:41:53.210Z,6.40
2022-12-25T07:44:22.722Z,6.50
2022-12-25T07:46:50.676Z,7.20
2022-12-25T07:49:21.034Z,6.70
2022-12-25T07:51:50.116Z,7.00
2022-12-25T07:54:16.851Z,6.80
2022-12-25T07:56:43.859Z,6.20
2022-12-25T07:59:10.452Z,5.50
2022-12-25T08:01:37.227Z,5.90
2022-12-25T08:04:04.618Z,5.30
2022-12-25T08:06:34.748Z,5.90
2022-12-25T08:09:10.387Z,5.80
2022-12-25T08:11:39.002Z,7.00
2022-12-25T08:14:08.531Z,6.50
2022-12-25T08:16:39.683Z,6.40
2022-12-25T08:19:07.263Z,6.60
2022-12-25T08:21:34.691Z,7.20
2022-12-25T08:24:03.274Z,6.60
2022-12-25T08:26:31.150Z,6.40
2022-12-25T08:28:59.738Z,6.60
2022-12-25T08:31:28.706Z,6.40
2022-12-25T08:33:58.010Z,6.30
2022-12-25T08:36:25.675Z,6.90
2022-12-25T08:39:00.308Z,7.00
2022-12-25T08:41:36.436Z,6.50
2022-12-25T08:44:06.651Z,6.80
2022-12-25T08:46:34.325Z,6.30
2022-12-25T08:49:01.986Z,7.20
2022-12-25T08:51:29.745Z,7.30
2022-12-25T08:54:01.315Z,6.30
2022-12-25T08:56:29.074Z,7.00
2022-12-25T08:58:57.660Z,6.50
2022-12-25T09:01:24.681Z,6.90
2022-12-25T09:03:51.368Z,6.80
2022-12-25T09:06:18.131Z,6.50
2022-12-25T09:08:49.075Z,6.70
2022-12-25T09:11:18.771Z,7.00
2022-12-25T09:13:46.266Z,6.80
2022-12-25T09:16:15.892Z,6.70
2022-12-25T09:18:43.571Z,6.30
2022-12-25T09:21:12.280Z,6.60
2022-12-25T09:23:39.251Z,6.20
2022-12-25T09:26:11.475Z,6.30
2022-12-25T09:28:38.095Z,5.40
2022-12-25T09:31:06.517Z,5.40
2022-12-25T09:33:33.498Z,6.00
2022-12-25T09:36:10.372Z,5.40
2022-12-25T09:38:36.932Z,5.40
2022-12-25T09:41:23.445Z,6.00
2022-12-25T09:43:58.113Z,6.40
2022-12-25T09:46:34.813Z,4.70
2022-12-25T09:49:35.790Z,5.70
2022-12-25T09:52:14.360Z,5.90
2022-12-25T09:54:58.459Z,5.60
2022-12-25T09:57:28.669Z,5.60
2022-12-25T09:59:57.690Z,5.70
2022-12-25T10:02:47.273Z,5.50
2022-12-25T10:05:51.599Z,5.80
2022-12-25T10:09:03.872Z,5.40
2022-12-25T10:11:42.421Z,5.70
2022-12-25T10:14:40.325Z,4.90
2022-12-25T10:17:45.285Z,5.40
2022-12-25T10:20:35.197Z,5.40
2022-12-25T10:23:09.601Z,5.50
2022-12-25T10:25:39.192Z,5.30
2022-12-25T10:28:26.664Z,4.80
2022-12-25T10:30:55.837Z,4.50
2022-12-25T10:33:24.814Z,5.30
2022-12-25T10:35:51.416Z,5.90
2022-12-25T10:38:20.129Z,6.30
2022-12-25T10:41:11.649Z,5.60
2022-12-25T10:44:14.952Z,5.60
2022-12-25T10:46:49.159Z,5.50
2022-12-25T10:49:19.702Z,5.80
2022-12-25T10:51:46.755Z,5.40
2022-12-25T10:54:21.669Z,5.10
2022-12-25T10:56:53.831Z,5.90
2022-12-25T10:59:20.672Z,5.80
2022-12-25T11:01:54.882Z,5.70
2022-12-25T11:04:28.708Z,5.60
2022-12-25T11:07:15.754Z,7.20
2022-12-25T11:09:50.094Z,6.80
2022-12-25T11:12:22.056Z,6.30
2022-12-25T11:15:28.501Z,5.90
2022-12-25T11:17:56.220Z,5.50
2022-12-25T11:20:24.201Z,6.00
2022-12-25T11:22:52.853Z,5.20
2022-12-25T11:25:26.279Z,4.80
2022-12-25T11:28:03.308Z,5.20
2022-12-25T11:30:32.631Z,5.70
2022-12-25T11:33:13.895Z,5.70
2022-12-25T11:35:53.590Z,5.60
2022-12-25T11:38:26.113Z,5.90
2022-12-25T11:40:59.405Z,6.00
2022-12-25T11:43:48.889Z,5.90
2022-12-25T11:46:27.473Z,6.30
2022-12-25T11:49:07.385Z,5.80
2022-12-25T11:51:38.627Z,5.40
2022-12-25T11:54:21.178Z,5.00
2022-12-25T11:56:48.828Z,5.70
2022-12-25T11:59:26.066Z,5.20
2022-12-25T12:01:58.833Z,5.00
2022-12-25T12:04:49.501Z,4.90
2022-12-25T12:07:29.587Z,5.70
2022-12-25T12:10:15.192Z,5.80
2022-12-25T12:13:10.277Z,5.40
2022-12-25T12:15:47.863Z,5.30
2022-12-25T12:18:21.318Z,5.60
2022-12-25T12:21:17.485Z,6.40
2022-12-25T12:24:01.841Z,4.70
2022-12-25T12:26:30.866Z,4.60
2022-12-25T12:29:00.843Z,5.30
2022-12-25T12:31:40.828Z,5.70
2022-12-25T12:34:19.305Z,5.30
2022-12-25T12:36:46.445Z,5.80
2022-12-25T12:39:24.742Z,6.00
2022-12-25T12:41:56.386Z,5.30
2022-12-25T12:44:26.624Z,5.80
2022-12-25T12:46:57.919Z,5.80
2022-12-25T12:49:33.988Z,5.20
2022-12-25T12:52:33.359Z,4.80
2022-12-25T12:55:13.130Z,5.40
2022-12-25T12:57:41.163Z,4.70
2022-12-25T13:00:18.609Z,5.50
2022-12-25T13:03:14.474Z,5.50
2022-12-25T13:05:48.895Z,5.40
2022-12-25T13:08:38.838Z,5.90
2022-12-25T13:11:15.400Z,5.90
2022-12-25T13:13:44.806Z,6.00
2022-12-25T13:16:27.305Z,5.30
2022-12-25T13:18:56.295Z,5.60
2022-12-25T13:21:27.582Z,5.50
2022-12-25T13:24:26.109Z,5.60
2022-12-25T13:26:53.245Z,5.10
2022-12-25T13:29:38.904Z,6.50
2022-12-25T13:32:15.346Z,5.70
2022-12-25T13:34:43.184Z,5.70
2022-12-25T13:37:19.766Z,5.50
2022-12-25T13:39:59.169Z,6.30
2022-12-25T13:42:33.254Z,5.20
2022-12-25T13:45:03.211Z,5.50
2022-12-25T13:47:34.810Z,5.60
2022-12-25T13:50:15.680Z,6.00
2022-12-25T13:52:44.393Z,5.90
2022-12-25T13:55:18.883Z,6.50
2022-12-25T13:58:07.838Z,6.50
2022-12-25T14:00:38.438Z,6.00
2022-12-25T14:03:08.056Z,6.20
2022-12-25T14:05:42.755Z,6.30
2022-12-25T14:08:29.453Z,5.00
2022-12-25T14:10:57.197Z,5.70
2022-12-25T14:13:28.254Z,5.30
2022-12-25T14:15:57.201Z,5.10
2022-12-25T14:18:25.248Z,5.80
2022-12-25T14:21:13.606Z,5.50
2022-12-25T14:23:50.068Z,5.60
2022-12-25T14:26:19.446Z,6.10
2022-12-25T14:29:17.276Z,5.90
2022-12-25T14:31:46.971Z,5.70
2022-12-25T14:34:18.634Z,5.00
2022-12-25T14:36:47.691Z,5.10
2022-12-25T14:39:31.520Z,5.30
2022-12-25T14:41:59.024Z,5.50
2022-12-25T14:44:39.805Z,6.10
2022-12-25T14:47:11.435Z,5.60
2022-12-25T14:49:39.300Z,5.50
2022-12-25T14:53:03.688Z,5.50
2022-12-25T14:55:31.374Z,4.80
2022-12-25T14:58:07.033Z,5.50
2022-12-25T15:00:37.886Z,5.20
2022-12-25T15:03:19.774Z,4.40
2022-12-25T15:05:58.133Z,4.90
2022-12-25T15:08:26.265Z,4.90
2022-12-25T15:11:00.414Z,4.90
2022-12-25T15:13:31.326Z,5.80
2022-12-25T15:16:17.968Z,5.50
2022-12-25T15:18:47.183Z,5.20
2022-12-25T15:21:22.605Z,6.40
2022-12-25T15:23:50.387Z,5.30
2022-12-25T15:26:17.087Z,5.50
2022-12-25T15:28:44.027Z,5.70
2022-12-25T15:31:23.127Z,5.40
2022-12-25T15:33:53.665Z,5.00
2022-12-25T15:36:22.089Z,5.20
2022-12-25T15:38:49.460Z,5.90
2022-12-25T15:41:48.665Z,5.20
2022-12-25T15:44:18.171Z,5.50
2022-12-25T15:46:45.925Z,5.80
2022-12-25T15:49:14.362Z,5.90
2022-12-25T15:51:44.024Z,5.00
2022-12-25T15:54:10.901Z,5.70
2022-12-25T15:56:47.651Z,5.50
2022-12-25T15:59:20.798Z,6.00
2022-12-25T16:01:52.452Z,5.70
2022-12-25T16:04:21.260Z,5.80
2022-12-25T16:06:50.591Z,5.40
2022-12-25T16:09:23.272Z,5.20
2022-12-25T16:11:54.691Z,5.80
2022-12-25T16:14:22.031Z,5.50
2022-12-25T16:16:48.654Z,5.70
2022-12-25T16:19:15.207Z,5.90
2022-12-25T16:21:45.556Z,5.90
2022-12-25T16:24:12.309Z,5.20
2022-12-25T16:26:40.664Z,4.20
2022-12-25T16:29:07.923Z,4.70
2022-12-25T16:31:40.078Z,4.90
2022-12-25T16:34:08.274Z,5.40
2022-12-25T16:36:36.046Z,6.10
2022-12-25T16:39:05.882Z,5.90
2022-12-25T16:41:32.830Z,6.30
2022-12-25T16:44:11.056Z,5.50
2022-12-25T16:46:42.363Z,6.10
2022-12-25T16:49:12.369Z,4.90
2022-12-25T16:51:44.029Z,5.30
2022-12-25T16:54:12.021Z,5.30
2022-12-25T16:56:38.769Z,5.30
2022-12-25T16:59:06.984Z,5.90
2022-12-25T17:01:34.743Z,5.60
2022-12-25T17:04:02.450Z,5.40
2022-12-25T17:06:29.831Z,6.00
2022-12-25T17:09:04.802Z,6.20
2022-12-25T17:14:02.662Z,5.60
2022-12-25T17:16:35.509Z,6.20
2022-12-25T17:19:07.848Z,5.50
2022-12-25T17:21:38.311Z,6.50
2022-12-25T17:24:08.639Z,6.30
2022-12-25T17:26:35.354Z,5.90
2022-12-25T17:29:06.199Z,5.70
2022-12-25T17:31:33.295Z,6.20
2022-12-25T17:34:01.629Z,6.10
2022-12-25T17:36:28.699Z,5.70
2022-12-25T17:38:56.166Z,5.80
2022-12-25T17:41:22.715Z,5.60
2022-12-25T17:43:50.375Z,5.20
2022-12-25T17:46:25.456Z,5.90
2022-12-25T17:48:56.821Z,6.20
2022-12-25T17:51:25.749Z,6.30
2022-12-25T17:54:00.304Z,6.00
2022-12-25T17:56:28.108Z,6.40
2022-12-25T17:59:00.593Z,6.70
2022-12-25T18:01:31.487Z,6.90
2022-12-25T18:04:02.370Z,6.90
2022-12-25T18:06:29.741Z,6.80
2022-12-25T18:08:58.232Z,6.70
2022-12-25T18:11:29.303Z,6.70
2022-12-25T18:13:58.353Z,6.60
2022-12-25T18:16:29.533Z,7.10
2022-12-25T18:19:00.704Z,6.60
2022-12-25T18:21:27.603Z,6.90
2022-12-25T18:23:57.319Z,7.40
2022-12-25T18:26:25.087Z,6.80
2022-12-25T18:28:52.307Z,6.10
2022-12-25T18:31:22.054Z,6.90
2022-12-25T18:33:53.023Z,6.20
2022-12-25T18:36:23.859Z,6.60
2022-12-25T18:38:54.497Z,6.90
2022-12-25T18:41:23.711Z,6.60
2022-12-25T18:43:53.500Z,6.20
2022-12-25T18:46:24.288Z,6.70
2022-12-25T18:48:51.587Z,6.30
2022-12-25T18:51:18.362Z,6.40
2022-12-25T18:53:45.262Z,6.90
2022-12-25T18:56:17.586Z,7.80
2022-12-25T18:58:47.587Z,7.20
2022-12-25T19:01:21.794Z,7.60
2022-12-25T19:03:49.911Z,7.40
2022-12-25T19:06:27.588Z,8.00
2022-12-25T19:08:57.777Z,6.60
2022-12-25T19:11:24.490Z,6.20
2022-12-25T19:16:53.011Z,7.20
2022-12-25T19:19:23.897Z,7.10
2022-12-25T19:21:55.470Z,8.00
2022-12-25T19:24:25.460Z,7.30
2022-12-25T19:26:52.144Z,7.10
2022-12-25T19:29:19.249Z,7.10
2022-12-25T19:31:51.490Z,6.00
2022-12-25T19:34:18.048Z,6.10
2022-12-25T19:36:44.709Z,8.00
2022-12-25T19:39:14.956Z,8.80
2022-12-25T19:41:42.649Z,8.50
2022-12-25T19:44:09.860Z,7.90
2022-12-25T19:46:43.237Z,8.10
2022-12-25T19:49:13.872Z,8.60
2022-12-25T19:51:47.515Z,6.70
2022-12-25T19:54:17.216Z,6.60
2022-12-25T19:56:48.381Z,6.90
2022-12-25T19:59:15.614Z,7.20
2022-12-25T20:01:47.876Z,7.40
2022-12-25T20:04:18.327Z,7.00
2022-12-25T20:06:46.321Z,6.40
2022-12-25T20:09:32.933Z,7.50
2022-12-25T20:12:00.200Z,6.50
2022-12-25T20:14:30.432Z,6.40
2022-12-25T20:16:57.744Z,5.60
2022-12-25T20:19:26.081Z,6.20
2022-12-25T20:21:54.224Z,5.60
2022-12-25T20:24:22.072Z,6.10
2022-12-25T20:26:50.522Z,6.10
2022-12-25T20:29:21.597Z,6.50
2022-12-25T20:31:48.323Z,5.80
2022-12-25T20:34:15.002Z,6.30
2022-12-25T20:36:43.223Z,5.60
2022-12-25T20:39:13.848Z,5.10
2022-12-25T20:41:42.561Z,4.60
2022-12-25T20:44:10.391Z,4.60
2022-12-25T20:46:37.477Z,4.60
2022-12-25T20:49:05.403Z,5.00
2022-12-25T20:51:31.941Z,5.20
2022-12-25T20:53:58.647Z,4.60
2022-12-25T20:56:27.482Z,5.40
2022-12-25T20:58:59.859Z,4.40
2022-12-25T21:01:29.746Z,4.40
2022-12-25T21:03:58.705Z,4.00
2022-12-25T21:06:25.922Z,4.50
2022-12-25T21:08:52.542Z,5.00
2022-12-25T21:11:21.308Z,4.70
2022-12-25T21:13:55.361Z,4.70
2022-12-25T21:16:27.419Z,4.70
2022-12-25T21:19:05.990Z,5.00
2022-12-25T21:21:49.046Z,4.30
2022-12-25T21:24:18.131Z,3.90
2022-12-25T21:26:48.087Z,4.10
2022-12-25T21:29:16.966Z,4.60
2022-12-25T21:32:03.139Z,4.40
2022-12-25T21:34:34.465Z,4.40
2022-12-25T21:37:32.108Z,4.10
2022-12-25T21:40:05.005Z,5.00
2022-12-25T21:42:35.060Z,4.30
2022-12-25T21:45:01.662Z,4.80
2022-12-25T21:48:00.331Z,4.20
2022-12-25T21:50:39.180Z,5.80
2022-12-25T21:53:07.773Z,4.90
2022-12-25T21:55:35.566Z,4.40
2022-12-25T21:58:15.916Z,4.90
2022-12-25T22:00:42.527Z,5.10
2022-12-25T22:03:09.982Z,5.30
2022-12-25T22:05:57.035Z,5.60
2022-12-25T22:08:23.893Z,5.40
2022-12-25T22:10:50.358Z,4.50
2022-12-25T22:13:35.671Z,4.10
2022-12-25T22:16:23.169Z,4.20
2022-12-25T22:19:13.668Z,4.20
2022-12-25T22:21:55.133Z,4.30
2022-12-25T22:24:51.619Z,4.60
2022-12-25T22:27:38.600Z,4.00
2022-12-25T22:30:21.365Z,4.00
2022-12-25T22:32:52.492Z,3.90
2022-12-25T22:35:20.191Z,3.80
2022-12-25T22:37:46.900Z,3.50
2022-12-25T22:40:17.941Z,3.00
2022-12-25T22:42:47.403Z,3.70
2022-12-25T22:45:15.019Z,4.20
2022-12-25T22:47:41.885Z,4.30
2022-12-25T22:50:12.207Z,3.80
2022-12-25T22:52:48.519Z,4.20
2022-12-25T22:55:20.625Z,4.50
2022-12-25T22:57:51.407Z,4.60
2022-12-25T23:00:18.879Z,4.10
2022-12-25T23:02:52.125Z,4.00
2022-12-25T23:05:19.383Z,3.80
2022-12-25T23:07:46.399Z,3.80
2022-12-25T23:10:16.272Z,4.20
2022-12-25T23:13:01.977Z,4.80
2022-12-25T23:15:30.035Z,5.20
2022-12-25T23:18:16.367Z,4.60
2022-12-25T23:21:03.021Z,5.30
2022-12-25T23:23:48.654Z,5.20
2022-12-25T23:26:18.431Z,6.00
2022-12-25T23:29:06.422Z,5.60
2022-12-25T23:31:40.015Z,6.00
2022-12-25T23:34:09.380Z,5.40
2022-12-25T23:36:36.305Z,5.90
2022-12-25T23:39:10.050Z,7.00
2022-12-25T23:41:40.086Z,7.50
2022-12-25T23:44:13.419Z,7.00
2022-12-25T23:46:52.738Z,8.40
2022-12-25T23:49:22.620Z,7.90
2022-12-25T23:51:50.282Z,7.20
2022-12-25T23:54:20.159Z,7.90
2022-12-25T23:56:49.844Z,7.30
2022-12-25T23:59:21.661Z,5.80
